sensor_id;sensor_type;location;lat;lon;timestamp;P1;durP1;ratioP1;P2;durP2;ratioP2
41829;SDS011;38614;43.472;23.936;2022-09-09T00:00:19;5.00;;;2.10;;
41829;SDS011;38614;43.472;23.936;2022-09-09T00:03:17;5.45;;;2.25;;
41829;SDS011;38614;43.472;23.936;2022-09-09T00:06:11;11.63;;;1.95;;
41829;SDS011;38614;43.472;23.936;2022-09-09T00:12:46;2.90;;;2.65;;
41829;SDS011;38614;43.472;23.936;2022-09-09T00:15:20;5.35;;;3.42;;
41829;SDS011;38614;43.472;23.936;2022-09-09T00:18:18;3.13;;;2.25;;
41829;SDS011;38614;43.472;23.936;2022-09-09T00:21:37;2.13;;;1.92;;
41829;SDS011;38614;43.472;23.936;2022-09-09T00:24:54;4.13;;;2.70;;
41829;SDS011;38614;43.472;23.936;2022-09-09T00:27:46;3.42;;;2.30;;
41829;SDS011;38614;43.472;23.936;2022-09-09T00:30:35;4.50;;;2.15;;
41829;SDS011;38614;43.472;23.936;2022-09-09T00:33:24;2.22;;;2.13;;
41829;SDS011;38614;43.472;23.936;2022-09-09T00:36:18;2.97;;;1.83;;
41829;SDS011;38614;43.472;23.936;2022-09-09T00:39:13;2.45;;;2.25;;
41829;SDS011;38614;43.472;23.936;2022-09-09T00:48:04;3.25;;;2.30;;
41829;SDS011;38614;43.472;23.936;2022-09-09T00:50:57;2.72;;;2.20;;
41829;SDS011;38614;43.472;23.936;2022-09-09T00:54:06;5.05;;;2.72;;
41829;SDS011;38614;43.472;23.936;2022-09-09T01:00:16;3.65;;;2.97;;
41829;SDS011;38614;43.472;23.936;2022-09-09T01:06:11;4.20;;;2.63;;
41829;SDS011;38614;43.472;23.936;2022-09-09T01:12:16;2.60;;;2.03;;
41829;SDS011;38614;43.472;23.936;2022-09-09T01:15:26;9.75;;;2.33;;
41829;SDS011;38614;43.472;23.936;2022-09-09T01:18:17;4.65;;;2.67;;
41829;SDS011;38614;43.472;23.936;2022-09-09T01:24:17;8.45;;;3.05;;
41829;SDS011;38614;43.472;23.936;2022-09-09T01:27:56;3.42;;;2.50;;
41829;SDS011;38614;43.472;23.936;2022-09-09T01:30:50;6.95;;;2.33;;
41829;SDS011;38614;43.472;23.936;2022-09-09T01:33:44;5.10;;;2.33;;
41829;SDS011;38614;43.472;23.936;2022-09-09T01:36:34;6.38;;;2.50;;
41829;SDS011;38614;43.472;23.936;2022-09-09T01:39:28;2.67;;;2.22;;
41829;SDS011;38614;43.472;23.936;2022-09-09T01:42:20;4.95;;;3.15;;
41829;SDS011;38614;43.472;23.936;2022-09-09T01:45:08;9.00;;;2.47;;
41829;SDS011;38614;43.472;23.936;2022-09-09T01:47:56;2.58;;;1.95;;
41829;SDS011;38614;43.472;23.936;2022-09-09T01:51:03;3.35;;;2.70;;
41829;SDS011;38614;43.472;23.936;2022-09-09T01:53:51;2.90;;;2.70;;
41829;SDS011;38614;43.472;23.936;2022-09-09T02:09:11;3.80;;;3.15;;
41829;SDS011;38614;43.472;23.936;2022-09-09T02:12:14;5.78;;;2.92;;
41829;SDS011;38614;43.472;23.936;2022-09-09T02:15:35;2.77;;;2.57;;
41829;SDS011;38614;43.472;23.936;2022-09-09T02:18:25;6.72;;;3.15;;
41829;SDS011;38614;43.472;23.936;2022-09-09T02:21:23;4.80;;;2.33;;
41829;SDS011;38614;43.472;23.936;2022-09-09T02:24:14;2.78;;;2.58;;
41829;SDS011;38614;43.472;23.936;2022-09-09T02:27:10;7.60;;;2.42;;
41829;SDS011;38614;43.472;23.936;2022-09-09T02:29:59;3.53;;;2.80;;
41829;SDS011;38614;43.472;23.936;2022-09-09T02:32:57;4.25;;;2.78;;
41829;SDS011;38614;43.472;23.936;2022-09-09T02:36:01;6.82;;;3.67;;
41829;SDS011;38614;43.472;23.936;2022-09-09T02:38:51;3.00;;;2.78;;
41829;SDS011;38614;43.472;23.936;2022-09-09T02:41:47;7.25;;;3.10;;
41829;SDS011;38614;43.472;23.936;2022-09-09T02:44:38;5.65;;;2.85;;
41829;SDS011;38614;43.472;23.936;2022-09-09T02:47:38;5.70;;;2.53;;
41829;SDS011;38614;43.472;23.936;2022-09-09T02:50:34;4.15;;;2.28;;
41829;SDS011;38614;43.472;23.936;2022-09-09T02:53:43;2.58;;;2.38;;
41829;SDS011;38614;43.472;23.936;2022-09-09T02:56:53;7.38;;;2.40;;
41829;SDS011;38614;43.472;23.936;2022-09-09T02:59:53;2.95;;;1.98;;
41829;SDS011;38614;43.472;23.936;2022-09-09T03:02:43;7.70;;;3.20;;
41829;SDS011;38614;43.472;23.936;2022-09-09T03:05:32;4.72;;;3.47;;
41829;SDS011;38614;43.472;23.936;2022-09-09T03:08:20;11.85;;;2.80;;
41829;SDS011;38614;43.472;23.936;2022-09-09T03:11:09;3.13;;;2.83;;
41829;SDS011;38614;43.472;23.936;2022-09-09T03:13:57;3.38;;;3.08;;
41829;SDS011;38614;43.472;23.936;2022-09-09T03:16:47;4.28;;;3.17;;
41829;SDS011;38614;43.472;23.936;2022-09-09T03:19:36;5.68;;;3.47;;
41829;SDS011;38614;43.472;23.936;2022-09-09T03:22:26;2.80;;;2.60;;
41829;SDS011;38614;43.472;23.936;2022-09-09T03:25:17;6.47;;;3.45;;
41829;SDS011;38614;43.472;23.936;2022-09-09T03:31:37;13.10;;;3.30;;
41829;SDS011;38614;43.472;23.936;2022-09-09T03:34:27;8.68;;;2.97;;
41829;SDS011;38614;43.472;23.936;2022-09-09T03:37:18;8.50;;;3.75;;
41829;SDS011;38614;43.472;23.936;2022-09-09T03:40:08;4.50;;;3.23;;
41829;SDS011;38614;43.472;23.936;2022-09-09T03:42:57;10.02;;;4.00;;
41829;SDS011;38614;43.472;23.936;2022-09-09T03:45:48;4.95;;;3.38;;
41829;SDS011;38614;43.472;23.936;2022-09-09T03:48:55;5.72;;;4.00;;
41829;SDS011;38614;43.472;23.936;2022-09-09T03:51:44;5.72;;;4.47;;
41829;SDS011;38614;43.472;23.936;2022-09-09T03:54:33;8.80;;;4.10;;
41829;SDS011;38614;43.472;23.936;2022-09-09T03:57:21;6.65;;;4.22;;
41829;SDS011;38614;43.472;23.936;2022-09-09T04:00:09;5.28;;;4.00;;
41829;SDS011;38614;43.472;23.936;2022-09-09T04:03:09;7.97;;;4.18;;
41829;SDS011;38614;43.472;23.936;2022-09-09T04:05:58;6.75;;;4.28;;
41829;SDS011;38614;43.472;23.936;2022-09-09T04:08:49;5.30;;;4.22;;
41829;SDS011;38614;43.472;23.936;2022-09-09T04:11:40;6.73;;;3.77;;
41829;SDS011;38614;43.472;23.936;2022-09-09T04:14:31;6.75;;;4.57;;
41829;SDS011;38614;43.472;23.936;2022-09-09T04:17:25;7.05;;;4.05;;
41829;SDS011;38614;43.472;23.936;2022-09-09T04:20:18;7.43;;;3.95;;
41829;SDS011;38614;43.472;23.936;2022-09-09T04:23:06;6.80;;;3.97;;
41829;SDS011;38614;43.472;23.936;2022-09-09T04:26:00;5.43;;;4.60;;
41829;SDS011;38614;43.472;23.936;2022-09-09T04:28:52;6.45;;;3.50;;
41829;SDS011;38614;43.472;23.936;2022-09-09T04:31:39;20.40;;;4.80;;
41829;SDS011;38614;43.472;23.936;2022-09-09T04:34:29;14.40;;;3.80;;
41829;SDS011;38614;43.472;23.936;2022-09-09T04:37:18;7.38;;;4.40;;
41829;SDS011;38614;43.472;23.936;2022-09-09T04:40:07;11.57;;;5.07;;
41829;SDS011;38614;43.472;23.936;2022-09-09T04:43:00;9.57;;;6.93;;
41829;SDS011;38614;43.472;23.936;2022-09-09T04:45:51;10.52;;;7.68;;
41829;SDS011;38614;43.472;23.936;2022-09-09T04:48:42;10.90;;;6.90;;
41829;SDS011;38614;43.472;23.936;2022-09-09T04:51:44;19.40;;;6.65;;
41829;SDS011;38614;43.472;23.936;2022-09-09T04:54:48;6.60;;;5.38;;
41829;SDS011;38614;43.472;23.936;2022-09-09T04:57:45;11.95;;;4.63;;
41829;SDS011;38614;43.472;23.936;2022-09-09T05:00:37;8.00;;;5.33;;
41829;SDS011;38614;43.472;23.936;2022-09-09T05:03:27;6.28;;;4.78;;
41829;SDS011;38614;43.472;23.936;2022-09-09T05:06:25;9.05;;;4.43;;
41829;SDS011;38614;43.472;23.936;2022-09-09T05:09:18;11.45;;;5.00;;
41829;SDS011;38614;43.472;23.936;2022-09-09T05:12:06;11.00;;;4.43;;
41829;SDS011;38614;43.472;23.936;2022-09-09T05:14:57;13.75;;;4.88;;
41829;SDS011;38614;43.472;23.936;2022-09-09T05:17:44;6.13;;;4.93;;
41829;SDS011;38614;43.472;23.936;2022-09-09T05:20:33;5.75;;;4.47;;
41829;SDS011;38614;43.472;23.936;2022-09-09T05:23:21;7.88;;;5.22;;
41829;SDS011;38614;43.472;23.936;2022-09-09T05:26:15;11.50;;;4.40;;
41829;SDS011;38614;43.472;23.936;2022-09-09T05:29:07;9.25;;;4.57;;
41829;SDS011;38614;43.472;23.936;2022-09-09T05:34:50;6.27;;;5.07;;
41829;SDS011;38614;43.472;23.936;2022-09-09T05:37:40;6.70;;;3.90;;
41829;SDS011;38614;43.472;23.936;2022-09-09T05:40:29;6.18;;;3.67;;
41829;SDS011;38614;43.472;23.936;2022-09-09T05:43:20;8.32;;;4.07;;
41829;SDS011;38614;43.472;23.936;2022-09-09T05:46:09;6.45;;;4.72;;
41829;SDS011;38614;43.472;23.936;2022-09-09T05:49:04;5.13;;;4.15;;
41829;SDS011;38614;43.472;23.936;2022-09-09T05:52:00;7.75;;;5.20;;
41829;SDS011;38614;43.472;23.936;2022-09-09T05:54:51;11.85;;;4.40;;
41829;SDS011;38614;43.472;23.936;2022-09-09T05:57:47;9.93;;;4.57;;
41829;SDS011;38614;43.472;23.936;2022-09-09T06:00:36;6.90;;;4.20;;
41829;SDS011;38614;43.472;23.936;2022-09-09T06:03:24;9.50;;;5.63;;
41829;SDS011;38614;43.472;23.936;2022-09-09T06:06:16;5.82;;;3.47;;
41829;SDS011;38614;43.472;23.936;2022-09-09T06:09:19;6.47;;;4.45;;
41829;SDS011;38614;43.472;23.936;2022-09-09T06:12:07;15.55;;;5.07;;
41829;SDS011;38614;43.472;23.936;2022-09-09T06:14:55;8.75;;;5.57;;
41829;SDS011;38614;43.472;23.936;2022-09-09T06:17:46;6.10;;;4.78;;
41829;SDS011;38614;43.472;23.936;2022-09-09T06:20:39;6.72;;;4.47;;
41829;SDS011;38614;43.472;23.936;2022-09-09T06:23:27;6.88;;;4.18;;
41829;SDS011;38614;43.472;23.936;2022-09-09T06:29:17;12.43;;;4.15;;
41829;SDS011;38614;43.472;23.936;2022-09-09T06:32:05;10.30;;;3.60;;
41829;SDS011;38614;43.472;23.936;2022-09-09T06:34:55;7.00;;;3.33;;
41829;SDS011;38614;43.472;23.936;2022-09-09T06:37:46;10.00;;;3.67;;
41829;SDS011;38614;43.472;23.936;2022-09-09T06:40:38;6.07;;;4.05;;
41829;SDS011;38614;43.472;23.936;2022-09-09T06:43:28;7.97;;;3.88;;
41829;SDS011;38614;43.472;23.936;2022-09-09T06:46:26;9.55;;;3.70;;
41829;SDS011;38614;43.472;23.936;2022-09-09T06:49:16;8.90;;;3.50;;
41829;SDS011;38614;43.472;23.936;2022-09-09T06:52:04;9.75;;;3.28;;
41829;SDS011;38614;43.472;23.936;2022-09-09T06:54:52;16.67;;;3.67;;
41829;SDS011;38614;43.472;23.936;2022-09-09T06:57:41;12.85;;;4.00;;
41829;SDS011;38614;43.472;23.936;2022-09-09T07:00:34;5.22;;;3.30;;
41829;SDS011;38614;43.472;23.936;2022-09-09T07:03:25;4.68;;;3.30;;
41829;SDS011;38614;43.472;23.936;2022-09-09T07:06:20;5.22;;;3.50;;
41829;SDS011;38614;43.472;23.936;2022-09-09T07:09:15;8.35;;;3.10;;
41829;SDS011;38614;43.472;23.936;2022-09-09T07:12:06;5.22;;;3.63;;
41829;SDS011;38614;43.472;23.936;2022-09-09T07:17:45;5.43;;;2.90;;
41829;SDS011;38614;43.472;23.936;2022-09-09T07:20:35;9.77;;;3.45;;
41829;SDS011;38614;43.472;23.936;2022-09-09T07:23:23;5.32;;;3.00;;
41829;SDS011;38614;43.472;23.936;2022-09-09T07:26:13;5.05;;;2.88;;
41829;SDS011;38614;43.472;23.936;2022-09-09T07:29:03;10.50;;;3.67;;
41829;SDS011;38614;43.472;23.936;2022-09-09T07:31:56;5.18;;;3.50;;
41829;SDS011;38614;43.472;23.936;2022-09-09T07:34:51;12.93;;;3.50;;
41829;SDS011;38614;43.472;23.936;2022-09-09T07:37:44;3.17;;;2.75;;
41829;SDS011;38614;43.472;23.936;2022-09-09T07:40:37;4.15;;;2.80;;
41829;SDS011;38614;43.472;23.936;2022-09-09T07:43:33;9.40;;;3.20;;
41829;SDS011;38614;43.472;23.936;2022-09-09T07:46:22;3.03;;;2.70;;
41829;SDS011;38614;43.472;23.936;2022-09-09T07:49:11;5.05;;;3.30;;
41829;SDS011;38614;43.472;23.936;2022-09-09T07:52:00;3.35;;;2.72;;
41829;SDS011;38614;43.472;23.936;2022-09-09T07:54:51;3.28;;;2.78;;
41829;SDS011;38614;43.472;23.936;2022-09-09T07:57:52;4.22;;;3.05;;
41829;SDS011;38614;43.472;23.936;2022-09-09T08:00:53;4.32;;;2.60;;
41829;SDS011;38614;43.472;23.936;2022-09-09T08:03:42;6.55;;;3.08;;
41829;SDS011;38614;43.472;23.936;2022-09-09T08:06:35;9.05;;;2.33;;
41829;SDS011;38614;43.472;23.936;2022-09-09T08:09:29;3.58;;;2.85;;
41829;SDS011;38614;43.472;23.936;2022-09-09T08:12:38;6.25;;;2.75;;
41829;SDS011;38614;43.472;23.936;2022-09-09T08:15:28;7.82;;;3.03;;
41829;SDS011;38614;43.472;23.936;2022-09-09T08:18:18;5.20;;;3.38;;
41829;SDS011;38614;43.472;23.936;2022-09-09T08:23:57;5.40;;;2.67;;
41829;SDS011;38614;43.472;23.936;2022-09-09T08:26:52;6.85;;;2.75;;
41829;SDS011;38614;43.472;23.936;2022-09-09T08:29:43;7.40;;;2.50;;
41829;SDS011;38614;43.472;23.936;2022-09-09T08:32:34;8.05;;;2.97;;
41829;SDS011;38614;43.472;23.936;2022-09-09T08:35:26;2.88;;;2.58;;
41829;SDS011;38614;43.472;23.936;2022-09-09T08:38:17;3.15;;;2.78;;
41829;SDS011;38614;43.472;23.936;2022-09-09T08:50:45;2.72;;;2.35;;
41829;SDS011;38614;43.472;23.936;2022-09-09T08:53:47;4.55;;;2.80;;
41829;SDS011;38614;43.472;23.936;2022-09-09T08:56:42;3.65;;;2.55;;
41829;SDS011;38614;43.472;23.936;2022-09-09T08:59:29;4.22;;;2.95;;
41829;SDS011;38614;43.472;23.936;2022-09-09T09:02:53;4.68;;;2.72;;
41829;SDS011;38614;43.472;23.936;2022-09-09T09:06:01;10.73;;;3.15;;
41829;SDS011;38614;43.472;23.936;2022-09-09T09:09:04;3.63;;;2.47;;
41829;SDS011;38614;43.472;23.936;2022-09-09T09:12:15;8.77;;;2.72;;
41829;SDS011;38614;43.472;23.936;2022-09-09T09:15:16;8.40;;;2.22;;
41829;SDS011;38614;43.472;23.936;2022-09-09T09:18:10;8.68;;;2.88;;
41829;SDS011;38614;43.472;23.936;2022-09-09T09:24:52;7.20;;;2.45;;
41829;SDS011;38614;43.472;23.936;2022-09-09T09:30:28;6.88;;;2.70;;
41829;SDS011;38614;43.472;23.936;2022-09-09T09:36:37;8.10;;;1.88;;
41829;SDS011;38614;43.472;23.936;2022-09-09T09:39:27;4.63;;;2.17;;
41829;SDS011;38614;43.472;23.936;2022-09-09T09:42:37;3.33;;;2.37;;
41829;SDS011;38614;43.472;23.936;2022-09-09T09:45:42;5.00;;;2.38;;
41829;SDS011;38614;43.472;23.936;2022-09-09T09:49:05;4.18;;;2.53;;
41829;SDS011;38614;43.472;23.936;2022-09-09T09:52:00;4.22;;;2.80;;
41829;SDS011;38614;43.472;23.936;2022-09-09T09:54:59;11.20;;;2.72;;
41829;SDS011;38614;43.472;23.936;2022-09-09T09:57:54;19.20;;;3.20;;
41829;SDS011;38614;43.472;23.936;2022-09-09T10:00:58;4.82;;;2.80;;
41829;SDS011;38614;43.472;23.936;2022-09-09T10:03:52;12.00;;;2.53;;
41829;SDS011;38614;43.472;23.936;2022-09-09T10:07:09;3.42;;;2.63;;
41829;SDS011;38614;43.472;23.936;2022-09-09T10:10:00;3.50;;;2.20;;
41829;SDS011;38614;43.472;23.936;2022-09-09T10:19:05;5.40;;;2.83;;
41829;SDS011;38614;43.472;23.936;2022-09-09T10:25:17;4.32;;;3.05;;
41829;SDS011;38614;43.472;23.936;2022-09-09T10:34:28;3.78;;;2.85;;
41829;SDS011;38614;43.472;23.936;2022-09-09T10:56:11;5.00;;;3.17;;
41829;SDS011;38614;43.472;23.936;2022-09-09T10:59:08;10.88;;;3.55;;
41829;SDS011;38614;43.472;23.936;2022-09-09T11:11:09;3.17;;;2.20;;
41829;SDS011;38614;43.472;23.936;2022-09-09T11:17:26;4.68;;;2.83;;
41829;SDS011;38614;43.472;23.936;2022-09-09T11:20:25;5.85;;;2.60;;
41829;SDS011;38614;43.472;23.936;2022-09-09T11:23:14;5.00;;;2.47;;
41829;SDS011;38614;43.472;23.936;2022-09-09T11:26:06;4.80;;;2.90;;
41829;SDS011;38614;43.472;23.936;2022-09-09T11:29:10;4.57;;;3.05;;
41829;SDS011;38614;43.472;23.936;2022-09-09T11:35:25;10.93;;;2.40;;
41829;SDS011;38614;43.472;23.936;2022-09-09T11:38:51;2.90;;;2.00;;
41829;SDS011;38614;43.472;23.936;2022-09-09T11:42:13;3.83;;;2.10;;
41829;SDS011;38614;43.472;23.936;2022-09-09T11:45:21;9.50;;;2.10;;
41829;SDS011;38614;43.472;23.936;2022-09-09T11:48:23;5.07;;;1.85;;
41829;SDS011;38614;43.472;23.936;2022-09-09T11:57:27;8.65;;;1.80;;
41829;SDS011;38614;43.472;23.936;2022-09-09T12:00:32;2.67;;;2.08;;
41829;SDS011;38614;43.472;23.936;2022-09-09T12:03:39;3.70;;;2.00;;
41829;SDS011;38614;43.472;23.936;2022-09-09T12:06:43;2.70;;;2.15;;
41829;SDS011;38614;43.472;23.936;2022-09-09T12:13:20;7.97;;;3.58;;
41829;SDS011;38614;43.472;23.936;2022-09-09T12:16:27;7.70;;;2.05;;
41829;SDS011;38614;43.472;23.936;2022-09-09T12:19:25;3.70;;;2.15;;
41829;SDS011;38614;43.472;23.936;2022-09-09T12:32:28;4.93;;;2.20;;
41829;SDS011;38614;43.472;23.936;2022-09-09T12:35:21;20.58;;;2.53;;
41829;SDS011;38614;43.472;23.936;2022-09-09T12:38:15;5.90;;;2.47;;
41829;SDS011;38614;43.472;23.936;2022-09-09T12:41:27;11.13;;;3.10;;
41829;SDS011;38614;43.472;23.936;2022-09-09T12:44:16;8.65;;;3.00;;
41829;SDS011;38614;43.472;23.936;2022-09-09T12:47:03;9.52;;;2.45;;
41829;SDS011;38614;43.472;23.936;2022-09-09T12:49:51;6.72;;;2.58;;
41829;SDS011;38614;43.472;23.936;2022-09-09T12:52:40;7.18;;;2.05;;
41829;SDS011;38614;43.472;23.936;2022-09-09T12:55:32;2.90;;;1.85;;
41829;SDS011;38614;43.472;23.936;2022-09-09T12:58:26;5.50;;;1.98;;
41829;SDS011;38614;43.472;23.936;2022-09-09T13:01:21;3.08;;;1.85;;
41829;SDS011;38614;43.472;23.936;2022-09-09T13:04:19;6.78;;;2.30;;
41829;SDS011;38614;43.472;23.936;2022-09-09T13:07:10;6.38;;;2.13;;
41829;SDS011;38614;43.472;23.936;2022-09-09T13:10:01;6.50;;;2.60;;
41829;SDS011;38614;43.472;23.936;2022-09-09T13:12:52;10.60;;;2.50;;
41829;SDS011;38614;43.472;23.936;2022-09-09T13:15:47;4.72;;;2.85;;
41829;SDS011;38614;43.472;23.936;2022-09-09T13:18:39;5.78;;;1.83;;
41829;SDS011;38614;43.472;23.936;2022-09-09T13:21:38;10.55;;;4.70;;
41829;SDS011;38614;43.472;23.936;2022-09-09T13:24:33;8.63;;;3.97;;
41829;SDS011;38614;43.472;23.936;2022-09-09T13:30:20;10.65;;;3.08;;
41829;SDS011;38614;43.472;23.936;2022-09-09T13:33:31;8.82;;;1.98;;
41829;SDS011;38614;43.472;23.936;2022-09-09T13:36:29;5.97;;;2.38;;
41829;SDS011;38614;43.472;23.936;2022-09-09T13:39:19;13.63;;;2.05;;
41829;SDS011;38614;43.472;23.936;2022-09-09T13:42:19;5.40;;;2.67;;
41829;SDS011;38614;43.472;23.936;2022-09-09T13:45:19;3.90;;;1.83;;
41829;SDS011;38614;43.472;23.936;2022-09-09T13:48:17;10.10;;;3.25;;
41829;SDS011;38614;43.472;23.936;2022-09-09T13:51:32;2.33;;;2.13;;
41829;SDS011;38614;43.472;23.936;2022-09-09T13:54:31;9.20;;;3.03;;
41829;SDS011;38614;43.472;23.936;2022-09-09T13:57:23;5.78;;;1.95;;
41829;SDS011;38614;43.472;23.936;2022-09-09T14:00:12;13.32;;;2.45;;
41829;SDS011;38614;43.472;23.936;2022-09-09T14:03:00;8.90;;;2.55;;
41829;SDS011;38614;43.472;23.936;2022-09-09T14:05:50;7.72;;;2.42;;
41829;SDS011;38614;43.472;23.936;2022-09-09T14:08:41;10.38;;;2.33;;
41829;SDS011;38614;43.472;23.936;2022-09-09T14:11:32;2.90;;;1.58;;
41829;SDS011;38614;43.472;23.936;2022-09-09T14:14:20;6.35;;;1.88;;
41829;SDS011;38614;43.472;23.936;2022-09-09T14:17:08;2.95;;;2.05;;
41829;SDS011;38614;43.472;23.936;2022-09-09T14:19:56;5.43;;;2.17;;
41829;SDS011;38614;43.472;23.936;2022-09-09T14:22:45;10.07;;;2.15;;
41829;SDS011;38614;43.472;23.936;2022-09-09T14:25:33;3.80;;;1.80;;
41829;SDS011;38614;43.472;23.936;2022-09-09T14:28:20;6.25;;;2.58;;
41829;SDS011;38614;43.472;23.936;2022-09-09T14:31:25;2.30;;;2.08;;
41829;SDS011;38614;43.472;23.936;2022-09-09T14:34:12;3.83;;;2.42;;
41829;SDS011;38614;43.472;23.936;2022-09-09T14:37:01;2.05;;;1.65;;
41829;SDS011;38614;43.472;23.936;2022-09-09T14:39:49;8.70;;;1.88;;
41829;SDS011;38614;43.472;23.936;2022-09-09T14:42:37;3.88;;;2.08;;
41829;SDS011;38614;43.472;23.936;2022-09-09T14:45:25;8.48;;;1.85;;
41829;SDS011;38614;43.472;23.936;2022-09-09T14:48:14;5.40;;;2.15;;
41829;SDS011;38614;43.472;23.936;2022-09-09T14:51:08;7.28;;;1.75;;
41829;SDS011;38614;43.472;23.936;2022-09-09T14:54:00;10.23;;;2.42;;
41829;SDS011;38614;43.472;23.936;2022-09-09T14:56:49;4.25;;;2.08;;
41829;SDS011;38614;43.472;23.936;2022-09-09T14:59:37;10.02;;;2.47;;
41829;SDS011;38614;43.472;23.936;2022-09-09T15:02:24;10.70;;;2.67;;
41829;SDS011;38614;43.472;23.936;2022-09-09T15:05:12;4.75;;;2.30;;
41829;SDS011;38614;43.472;23.936;2022-09-09T15:08:00;6.22;;;1.60;;
41829;SDS011;38614;43.472;23.936;2022-09-09T15:10:48;8.18;;;2.17;;
41829;SDS011;38614;43.472;23.936;2022-09-09T15:13:37;3.88;;;1.92;;
41829;SDS011;38614;43.472;23.936;2022-09-09T15:16:27;6.35;;;2.90;;
41829;SDS011;38614;43.472;23.936;2022-09-09T15:19:18;10.10;;;2.35;;
41829;SDS011;38614;43.472;23.936;2022-09-09T15:22:06;4.25;;;2.03;;
41829;SDS011;38614;43.472;23.936;2022-09-09T15:24:54;6.72;;;1.92;;
41829;SDS011;38614;43.472;23.936;2022-09-09T15:27:42;7.15;;;2.13;;
41829;SDS011;38614;43.472;23.936;2022-09-09T15:30:31;7.93;;;2.05;;
41829;SDS011;38614;43.472;23.936;2022-09-09T15:33:19;3.72;;;2.15;;
41829;SDS011;38614;43.472;23.936;2022-09-09T15:39:02;6.53;;;2.13;;
41829;SDS011;38614;43.472;23.936;2022-09-09T15:41:54;9.02;;;2.38;;
41829;SDS011;38614;43.472;23.936;2022-09-09T15:44:42;11.37;;;2.53;;
41829;SDS011;38614;43.472;23.936;2022-09-09T15:47:33;3.13;;;2.40;;
41829;SDS011;38614;43.472;23.936;2022-09-09T15:50:30;7.22;;;2.13;;
41829;SDS011;38614;43.472;23.936;2022-09-09T15:53:19;4.70;;;2.60;;
41829;SDS011;38614;43.472;23.936;2022-09-09T15:56:07;5.38;;;2.42;;
41829;SDS011;38614;43.472;23.936;2022-09-09T15:59:05;3.50;;;1.80;;
41829;SDS011;38614;43.472;23.936;2022-09-09T16:01:55;6.68;;;1.80;;
41829;SDS011;38614;43.472;23.936;2022-09-09T16:04:47;2.55;;;1.75;;
41829;SDS011;38614;43.472;23.936;2022-09-09T16:07:37;5.07;;;2.25;;
41829;SDS011;38614;43.472;23.936;2022-09-09T16:10:26;5.57;;;2.65;;
41829;SDS011;38614;43.472;23.936;2022-09-09T16:13:14;11.52;;;3.70;;
41829;SDS011;38614;43.472;23.936;2022-09-09T16:16:02;10.40;;;2.58;;
41829;SDS011;38614;43.472;23.936;2022-09-09T16:18:55;6.10;;;2.20;;
41829;SDS011;38614;43.472;23.936;2022-09-09T16:21:46;6.35;;;3.05;;
41829;SDS011;38614;43.472;23.936;2022-09-09T16:24:38;16.17;;;4.05;;
41829;SDS011;38614;43.472;23.936;2022-09-09T16:27:26;12.98;;;3.47;;
41829;SDS011;38614;43.472;23.936;2022-09-09T16:30:14;21.13;;;3.72;;
41829;SDS011;38614;43.472;23.936;2022-09-09T16:33:02;8.48;;;3.33;;
41829;SDS011;38614;43.472;23.936;2022-09-09T16:35:50;7.85;;;3.65;;
41829;SDS011;38614;43.472;23.936;2022-09-09T16:38:38;5.38;;;3.35;;
41829;SDS011;38614;43.472;23.936;2022-09-09T16:41:30;7.65;;;2.75;;
41829;SDS011;38614;43.472;23.936;2022-09-09T16:44:18;3.53;;;1.90;;
41829;SDS011;38614;43.472;23.936;2022-09-09T16:47:11;9.48;;;2.83;;
41829;SDS011;38614;43.472;23.936;2022-09-09T16:49:59;6.55;;;2.25;;
41829;SDS011;38614;43.472;23.936;2022-09-09T16:52:48;15.20;;;2.70;;
41829;SDS011;38614;43.472;23.936;2022-09-09T16:55:39;12.93;;;2.92;;
41829;SDS011;38614;43.472;23.936;2022-09-09T16:58:28;4.72;;;2.25;;
41829;SDS011;38614;43.472;23.936;2022-09-09T17:01:16;4.13;;;2.00;;
41829;SDS011;38614;43.472;23.936;2022-09-09T17:04:10;7.95;;;3.00;;
41829;SDS011;38614;43.472;23.936;2022-09-09T17:07:08;8.25;;;2.58;;
41829;SDS011;38614;43.472;23.936;2022-09-09T17:10:21;4.57;;;2.08;;
41829;SDS011;38614;43.472;23.936;2022-09-09T17:13:09;6.18;;;1.92;;
41829;SDS011;38614;43.472;23.936;2022-09-09T17:15:57;5.07;;;2.10;;
41829;SDS011;38614;43.472;23.936;2022-09-09T17:18:49;7.97;;;2.10;;
41829;SDS011;38614;43.472;23.936;2022-09-09T17:21:39;6.10;;;2.78;;
41829;SDS011;38614;43.472;23.936;2022-09-09T17:24:46;2.58;;;2.38;;
41829;SDS011;38614;43.472;23.936;2022-09-09T17:27:34;7.43;;;2.35;;
41829;SDS011;38614;43.472;23.936;2022-09-09T17:30:22;12.70;;;3.00;;
41829;SDS011;38614;43.472;23.936;2022-09-09T17:33:10;6.55;;;2.90;;
41829;SDS011;38614;43.472;23.936;2022-09-09T17:35:58;9.13;;;2.63;;
41829;SDS011;38614;43.472;23.936;2022-09-09T17:38:46;4.10;;;2.38;;
41829;SDS011;38614;43.472;23.936;2022-09-09T17:41:37;8.63;;;2.40;;
41829;SDS011;38614;43.472;23.936;2022-09-09T17:44:35;3.13;;;2.30;;
41829;SDS011;38614;43.472;23.936;2022-09-09T17:47:28;4.00;;;2.33;;
41829;SDS011;38614;43.472;23.936;2022-09-09T17:50:22;2.88;;;2.50;;
41829;SDS011;38614;43.472;23.936;2022-09-09T17:53:15;4.60;;;2.38;;
41829;SDS011;38614;43.472;23.936;2022-09-09T17:56:03;6.53;;;2.88;;
41829;SDS011;38614;43.472;23.936;2022-09-09T17:58:53;2.78;;;2.38;;
41829;SDS011;38614;43.472;23.936;2022-09-09T18:01:42;3.72;;;1.80;;
41829;SDS011;38614;43.472;23.936;2022-09-09T18:04:31;5.07;;;2.42;;
41829;SDS011;38614;43.472;23.936;2022-09-09T18:07:19;2.45;;;2.30;;
41829;SDS011;38614;43.472;23.936;2022-09-09T18:10:07;2.60;;;2.30;;
41829;SDS011;38614;43.472;23.936;2022-09-09T18:12:56;5.60;;;2.78;;
41829;SDS011;38614;43.472;23.936;2022-09-09T18:15:46;8.73;;;2.50;;
41829;SDS011;38614;43.472;23.936;2022-09-09T18:18:35;5.40;;;2.55;;
41829;SDS011;38614;43.472;23.936;2022-09-09T18:21:24;7.60;;;2.80;;
41829;SDS011;38614;43.472;23.936;2022-09-09T18:24:14;9.45;;;2.30;;
41829;SDS011;38614;43.472;23.936;2022-09-09T18:27:03;3.10;;;2.55;;
41829;SDS011;38614;43.472;23.936;2022-09-09T18:29:51;4.90;;;2.60;;
41829;SDS011;38614;43.472;23.936;2022-09-09T18:32:39;8.25;;;2.85;;
41829;SDS011;38614;43.472;23.936;2022-09-09T18:35:27;12.57;;;3.20;;
41829;SDS011;38614;43.472;23.936;2022-09-09T18:38:15;10.23;;;2.95;;
41829;SDS011;38614;43.472;23.936;2022-09-09T18:44:30;4.00;;;2.80;;
41829;SDS011;38614;43.472;23.936;2022-09-09T18:47:19;8.88;;;3.08;;
41829;SDS011;38614;43.472;23.936;2022-09-09T18:50:08;6.75;;;2.80;;
41829;SDS011;38614;43.472;23.936;2022-09-09T18:52:58;11.95;;;4.93;;
41829;SDS011;38614;43.472;23.936;2022-09-09T18:55:48;12.68;;;4.43;;
41829;SDS011;38614;43.472;23.936;2022-09-09T18:58:52;6.00;;;4.28;;
41829;SDS011;38614;43.472;23.936;2022-09-09T19:01:41;11.40;;;5.10;;
41829;SDS011;38614;43.472;23.936;2022-09-09T19:04:30;20.23;;;5.65;;
41829;SDS011;38614;43.472;23.936;2022-09-09T19:07:19;11.27;;;5.70;;
41829;SDS011;38614;43.472;23.936;2022-09-09T19:10:10;12.02;;;5.25;;
41829;SDS011;38614;43.472;23.936;2022-09-09T19:12:57;11.30;;;5.38;;
41829;SDS011;38614;43.472;23.936;2022-09-09T19:15:45;13.63;;;5.75;;
41829;SDS011;38614;43.472;23.936;2022-09-09T19:18:33;13.07;;;4.93;;
41829;SDS011;38614;43.472;23.936;2022-09-09T19:21:25;13.65;;;5.88;;
41829;SDS011;38614;43.472;23.936;2022-09-09T19:24:18;16.42;;;5.93;;
41829;SDS011;38614;43.472;23.936;2022-09-09T19:27:08;10.10;;;4.55;;
41829;SDS011;38614;43.472;23.936;2022-09-09T19:29:56;11.43;;;5.05;;
41829;SDS011;38614;43.472;23.936;2022-09-09T19:32:44;18.50;;;5.00;;